ADDS METAR Data INFO
IDs: Format: Raw Decoded Include TAF

Data at: 1931 UTC 25 Mar 2017

KPNS 251853Z 15018G23KT 9SM BKN017 BKN021 OVC030 24/18 A3012 RMK AO2 SLP200 T02440183

KPNS 251731Z 2518/2618 15015G25KT P6SM BKN020
  TEMPO 2522/2601 VRB15G25KT 4SM +TSRA SCT008 BKN015CB OVC020
  FM260100 17017G25KT 5SM TSRA BKN025CB
  TEMPO 2601/2603 VRB25G35KT 1/2SM +TSRA SCT008 BKN015CB OVC020



Page loaded:  19:31 UTC  |   12:31 PM Pacific  |   01:31 PM Mountain  |   02:31 PM Central  |   03:31 PM Eastern

 

ADVISORIES

FORECASTS

FORECASTS

OBSERVATIONS

USER TOOLS

ABOUT US